sensor_id;sensor_type;location;lat;lon;timestamp;pressure;altitude;pressure_sealevel;temperature;humidity
69982;BME280;57319;56.274;43.980;2023-02-18T00:02:04;99992.22;;;-5.79;77.45
69982;BME280;57319;56.274;43.980;2023-02-18T00:04:30;99990.47;;;-5.80;77.49
69982;BME280;57319;56.274;43.980;2023-02-18T00:06:55;99981.13;;;-5.83;77.34
69982;BME280;57319;56.274;43.980;2023-02-18T00:09:21;99977.19;;;-5.79;77.40
69982;BME280;57319;56.274;43.980;2023-02-18T00:11:47;99976.13;;;-5.83;77.36
69982;BME280;57319;56.274;43.980;2023-02-18T00:14:14;99977.53;;;-5.88;77.08
69982;BME280;57319;56.274;43.980;2023-02-18T00:16:41;99973.13;;;-5.92;77.33
69982;BME280;57319;56.274;43.980;2023-02-18T00:19:15;99967.31;;;-5.91;77.34
69982;BME280;57319;56.274;43.980;2023-02-18T00:21:42;99965.59;;;-5.92;77.86
69982;BME280;57319;56.274;43.980;2023-02-18T00:24:09;99966.38;;;-5.93;77.36
69982;BME280;57319;56.274;43.980;2023-02-18T00:26:35;99960.38;;;-5.95;77.27
69982;BME280;57319;56.274;43.980;2023-02-18T00:29:02;99958.09;;;-5.92;77.29
69982;BME280;57319;56.274;43.980;2023-02-18T00:31:31;99957.28;;;-5.91;77.19
69982;BME280;57319;56.274;43.980;2023-02-18T00:33:57;99952.78;;;-5.97;76.91
69982;BME280;57319;56.274;43.980;2023-02-18T00:36:24;99951.94;;;-5.97;76.97
69982;BME280;57319;56.274;43.980;2023-02-18T00:38:55;99951.72;;;-6.02;76.80
69982;BME280;57319;56.274;43.980;2023-02-18T00:41:22;99944.88;;;-6.04;77.88
69982;BME280;57319;56.274;43.980;2023-02-18T00:43:48;99944.81;;;-6.06;77.77
69982;BME280;57319;56.274;43.980;2023-02-18T00:46:14;99942.91;;;-6.10;77.67
69982;BME280;57319;56.274;43.980;2023-02-18T00:48:40;99942.31;;;-6.06;76.97
69982;BME280;57319;56.274;43.980;2023-02-18T00:51:06;99938.75;;;-6.09;76.70
69982;BME280;57319;56.274;43.980;2023-02-18T00:53:33;99941.78;;;-6.15;76.94
69982;BME280;57319;56.274;43.980;2023-02-18T00:55:59;99932.69;;;-6.13;77.11
69982;BME280;57319;56.274;43.980;2023-02-18T00:58:25;99932.16;;;-6.07;77.70
69982;BME280;57319;56.274;43.980;2023-02-18T01:00:51;99927.72;;;-5.97;77.46
69982;BME280;57319;56.274;43.980;2023-02-18T01:03:17;99925.28;;;-5.95;77.28
69982;BME280;57319;56.274;43.980;2023-02-18T01:05:43;99916.16;;;-5.94;77.11
69982;BME280;57319;56.274;43.980;2023-02-18T01:08:10;99926.94;;;-5.96;77.01
69982;BME280;57319;56.274;43.980;2023-02-18T01:10:40;99928.97;;;-6.05;77.02
69982;BME280;57319;56.274;43.980;2023-02-18T01:13:06;99915.34;;;-6.10;77.38
69982;BME280;57319;56.274;43.980;2023-02-18T01:15:31;99914.44;;;-6.10;77.00
69982;BME280;57319;56.274;43.980;2023-02-18T01:17:57;99911.09;;;-6.11;77.00
69982;BME280;57319;56.274;43.980;2023-02-18T01:20:23;99911.88;;;-6.12;77.38
69982;BME280;57319;56.274;43.980;2023-02-18T01:22:48;99915.34;;;-6.10;77.18
69982;BME280;57319;56.274;43.980;2023-02-18T01:25:14;99900.19;;;-6.11;76.64
69982;BME280;57319;56.274;43.980;2023-02-18T01:27:40;99899.78;;;-6.19;77.12
69982;BME280;57319;56.274;43.980;2023-02-18T01:30:08;99905.31;;;-6.25;76.88
69982;BME280;57319;56.274;43.980;2023-02-18T01:32:34;99892.25;;;-6.19;77.38
69982;BME280;57319;56.274;43.980;2023-02-18T01:35:01;99895.44;;;-6.22;77.35
69982;BME280;57319;56.274;43.980;2023-02-18T01:37:28;99897.19;;;-6.21;77.31
69982;BME280;57319;56.274;43.980;2023-02-18T01:39:54;99891.47;;;-6.18;77.23
69982;BME280;57319;56.274;43.980;2023-02-18T01:42:26;99884.28;;;-6.12;77.06
69982;BME280;57319;56.274;43.980;2023-02-18T01:44:53;99887.31;;;-6.03;77.07
69982;BME280;57319;56.274;43.980;2023-02-18T01:47:19;99892.50;;;-6.00;76.53
69982;BME280;57319;56.274;43.980;2023-02-18T01:49:50;99885.25;;;-6.10;76.41
69982;BME280;57319;56.274;43.980;2023-02-18T01:52:22;99879.88;;;-6.16;77.35
69982;BME280;57319;56.274;43.980;2023-02-18T01:54:51;99883.59;;;-6.09;77.10
69982;BME280;57319;56.274;43.980;2023-02-18T01:57:21;99876.44;;;-6.18;76.81
69982;BME280;57319;56.274;43.980;2023-02-18T01:59:51;99879.88;;;-6.16;77.11
69982;BME280;57319;56.274;43.980;2023-02-18T02:02:21;99877.38;;;-6.16;77.58
69982;BME280;57319;56.274;43.980;2023-02-18T02:04:47;99876.78;;;-6.12;77.24
69982;BME280;57319;56.274;43.980;2023-02-18T02:07:14;99867.81;;;-6.23;76.77
69982;BME280;57319;56.274;43.980;2023-02-18T02:09:41;99869.69;;;-6.19;76.96
69982;BME280;57319;56.274;43.980;2023-02-18T02:12:34;99867.34;;;-6.16;77.02
69982;BME280;57319;56.274;43.980;2023-02-18T02:15:15;99867.13;;;-6.21;76.95
69982;BME280;57319;56.274;43.980;2023-02-18T02:36:05;99845.50;;;-6.34;76.74
69982;BME280;57319;56.274;43.980;2023-02-18T02:38:51;99838.50;;;-6.39;76.81
69982;BME280;57319;56.274;43.980;2023-02-18T02:41:41;99844.63;;;-6.49;77.18
69982;BME280;57319;56.274;43.980;2023-02-18T02:46:56;99824.78;;;-6.46;77.45
69982;BME280;57319;56.274;43.980;2023-02-18T02:50:08;99831.94;;;-6.52;78.36
69982;BME280;57319;56.274;43.980;2023-02-18T02:52:43;99823.84;;;-6.48;78.04
69982;BME280;57319;56.274;43.980;2023-02-18T02:55:11;99821.50;;;-6.45;77.64
69982;BME280;57319;56.274;43.980;2023-02-18T02:57:42;99824.00;;;-6.45;77.89
69982;BME280;57319;56.274;43.980;2023-02-18T03:00:09;99816.13;;;-6.36;77.63
69982;BME280;57319;56.274;43.980;2023-02-18T03:07:59;99802.84;;;-6.35;77.82
69982;BME280;57319;56.274;43.980;2023-02-18T03:10:55;99805.09;;;-6.40;77.40
69982;BME280;57319;56.274;43.980;2023-02-18T03:19:23;99795.59;;;-6.60;77.30
69982;BME280;57319;56.274;43.980;2023-02-18T03:26:52;99791.59;;;-6.57;78.17
69982;BME280;57319;56.274;43.980;2023-02-18T03:29:21;99784.28;;;-6.69;77.59
69982;BME280;57319;56.274;43.980;2023-02-18T03:31:53;99787.47;;;-6.71;77.75
69982;BME280;57319;56.274;43.980;2023-02-18T03:34:25;99787.47;;;-6.71;77.71
69982;BME280;57319;56.274;43.980;2023-02-18T03:36:54;99783.16;;;-6.74;77.61
69982;BME280;57319;56.274;43.980;2023-02-18T03:39:22;99781.41;;;-6.75;77.79
69982;BME280;57319;56.274;43.980;2023-02-18T03:41:49;99780.56;;;-6.75;78.12
69982;BME280;57319;56.274;43.980;2023-02-18T03:44:15;99786.78;;;-6.69;78.25
69982;BME280;57319;56.274;43.980;2023-02-18T03:46:42;99784.44;;;-6.66;78.19
69982;BME280;57319;56.274;43.980;2023-02-18T03:49:10;99784.53;;;-6.64;78.05
69982;BME280;57319;56.274;43.980;2023-02-18T03:51:37;99775.28;;;-6.65;78.12
69982;BME280;57319;56.274;43.980;2023-02-18T03:54:03;99768.28;;;-6.56;77.70
69982;BME280;57319;56.274;43.980;2023-02-18T03:56:29;99776.78;;;-6.54;77.73
69982;BME280;57319;56.274;43.980;2023-02-18T03:58:55;99765.97;;;-6.53;77.36
69982;BME280;57319;56.274;43.980;2023-02-18T04:01:20;99771.16;;;-6.50;77.37
69982;BME280;57319;56.274;43.980;2023-02-18T04:03:46;99762.00;;;-6.49;77.12
69982;BME280;57319;56.274;43.980;2023-02-18T04:06:12;99761.13;;;-6.50;77.58
69982;BME280;57319;56.274;43.980;2023-02-18T04:08:37;99774.28;;;-6.54;76.90
69982;BME280;57319;56.274;43.980;2023-02-18T04:11:03;99762.00;;;-6.64;77.22
69982;BME280;57319;56.274;43.980;2023-02-18T04:13:29;99771.41;;;-6.60;77.14
69982;BME280;57319;56.274;43.980;2023-02-18T04:15:55;99758.38;;;-6.69;77.13
69982;BME280;57319;56.274;43.980;2023-02-18T04:18:21;99761.91;;;-6.66;77.46
69982;BME280;57319;56.274;43.980;2023-02-18T04:20:47;99759.94;;;-6.71;77.39
69982;BME280;57319;56.274;43.980;2023-02-18T04:23:12;99762.59;;;-6.68;77.22
69982;BME280;57319;56.274;43.980;2023-02-18T04:25:38;99751.91;;;-6.66;77.01
69982;BME280;57319;56.274;43.980;2023-02-18T04:28:04;99758.81;;;-6.61;76.61
69982;BME280;57319;56.274;43.980;2023-02-18T04:30:30;99761.31;;;-6.61;76.91
69982;BME280;57319;56.274;43.980;2023-02-18T04:32:55;99757.06;;;-6.62;76.69
69982;BME280;57319;56.274;43.980;2023-02-18T04:35:21;99760.25;;;-6.65;77.04
69982;BME280;57319;56.274;43.980;2023-02-18T04:37:47;99768.06;;;-6.60;76.76
69982;BME280;57319;56.274;43.980;2023-02-18T04:40:13;99762.88;;;-6.63;76.74
69982;BME280;57319;56.274;43.980;2023-02-18T04:42:38;99755.25;;;-6.65;76.83
69982;BME280;57319;56.274;43.980;2023-02-18T04:45:04;99759.34;;;-6.67;76.77
69982;BME280;57319;56.274;43.980;2023-02-18T04:47:30;99761.84;;;-6.67;76.73
69982;BME280;57319;56.274;43.980;2023-02-18T04:49:56;99753.47;;;-6.68;76.50
69982;BME280;57319;56.274;43.980;2023-02-18T04:52:22;99759.56;;;-6.62;76.49
69982;BME280;57319;56.274;43.980;2023-02-18T04:54:47;99757.06;;;-6.62;76.66
69982;BME280;57319;56.274;43.980;2023-02-18T04:57:13;99754.41;;;-6.66;76.39
69982;BME280;57319;56.274;43.980;2023-02-18T04:59:39;99751.72;;;-6.69;76.85
69982;BME280;57319;56.274;43.980;2023-02-18T05:02:04;99749.47;;;-6.64;76.94
69982;BME280;57319;56.274;43.980;2023-02-18T05:04:30;99749.75;;;-6.59;76.72
69982;BME280;57319;56.274;43.980;2023-02-18T05:06:56;99754.16;;;-6.55;76.27
69982;BME280;57319;56.274;43.980;2023-02-18T05:09:21;99747.75;;;-6.50;76.17
69982;BME280;57319;56.274;43.980;2023-02-18T05:11:47;99748.94;;;-6.43;76.00
69982;BME280;57319;56.274;43.980;2023-02-18T05:14:14;99741.97;;;-6.49;75.75
69982;BME280;57319;56.274;43.980;2023-02-18T05:16:40;99748.09;;;-6.59;75.91
69982;BME280;57319;56.274;43.980;2023-02-18T05:19:05;99747.41;;;-6.56;76.00
69982;BME280;57319;56.274;43.980;2023-02-18T05:21:31;99742.81;;;-6.49;75.34
69982;BME280;57319;56.274;43.980;2023-02-18T05:23:57;99738.75;;;-6.46;75.00
69982;BME280;57319;56.274;43.980;2023-02-18T05:26:23;99738.59;;;-6.50;75.31
69982;BME280;57319;56.274;43.980;2023-02-18T05:28:49;99741.25;;;-6.46;75.35
69982;BME280;57319;56.274;43.980;2023-02-18T05:31:15;99724.44;;;-6.49;75.61
69982;BME280;57319;56.274;43.980;2023-02-18T05:33:40;99729.41;;;-6.34;75.11
69982;BME280;57319;56.274;43.980;2023-02-18T05:36:06;99735.81;;;-6.39;75.33
69982;BME280;57319;56.274;43.980;2023-02-18T05:38:32;99733.38;;;-6.38;75.61
69982;BME280;57319;56.274;43.980;2023-02-18T05:40:57;99719.03;;;-6.40;75.17
69982;BME280;57319;56.274;43.980;2023-02-18T05:43:23;99720.84;;;-6.38;74.88
69982;BME280;57319;56.274;43.980;2023-02-18T05:45:48;99717.06;;;-6.46;74.96
69982;BME280;57319;56.274;43.980;2023-02-18T05:48:14;99707.66;;;-6.50;74.85
69982;BME280;57319;56.274;43.980;2023-02-18T05:50:40;99707.50;;;-6.53;75.06
69982;BME280;57319;56.274;43.980;2023-02-18T05:53:06;99706.81;;;-6.51;75.42
69982;BME280;57319;56.274;43.980;2023-02-18T05:55:31;99700.59;;;-6.42;75.23
69982;BME280;57319;56.274;43.980;2023-02-18T05:58:02;99704.22;;;-6.37;74.60
69982;BME280;57319;56.274;43.980;2023-02-18T06:00:28;99703.59;;;-6.33;74.52
69982;BME280;57319;56.274;43.980;2023-02-18T06:02:54;99700.19;;;-6.34;74.31
69982;BME280;57319;56.274;43.980;2023-02-18T06:05:20;99696.47;;;-6.25;74.18
69982;BME280;57319;56.274;43.980;2023-02-18T06:07:46;99693.34;;;-6.21;74.34
69982;BME280;57319;56.274;43.980;2023-02-18T06:10:12;99679.97;;;-6.22;74.12
69982;BME280;57319;56.274;43.980;2023-02-18T06:12:38;99685.47;;;-6.12;73.50
69982;BME280;57319;56.274;43.980;2023-02-18T06:15:04;99688.34;;;-6.21;73.71
69982;BME280;57319;56.274;43.980;2023-02-18T06:17:30;99689.13;;;-6.22;73.68
69982;BME280;57319;56.274;43.980;2023-02-18T06:19:56;99688.25;;;-6.23;73.78
69982;BME280;57319;56.274;43.980;2023-02-18T06:22:21;99672.88;;;-6.14;73.21
69982;BME280;57319;56.274;43.980;2023-02-18T06:24:47;99681.84;;;-6.18;73.46
69982;BME280;57319;56.274;43.980;2023-02-18T06:27:13;99670.50;;;-6.27;73.23
69982;BME280;57319;56.274;43.980;2023-02-18T06:29:38;99671.75;;;-6.19;73.28
69982;BME280;57319;56.274;43.980;2023-02-18T06:32:04;99661.72;;;-6.19;73.23
69982;BME280;57319;56.274;43.980;2023-02-18T06:34:29;99658.91;;;-6.09;73.22
69982;BME280;57319;56.274;43.980;2023-02-18T06:36:55;99654.25;;;-6.03;72.50
69982;BME280;57319;56.274;43.980;2023-02-18T06:39:21;99653.66;;;-5.97;73.05
69982;BME280;57319;56.274;43.980;2023-02-18T06:41:46;99649.56;;;-5.95;72.36
69982;BME280;57319;56.274;43.980;2023-02-18T06:44:12;99652.00;;;-5.97;72.80
69982;BME280;57319;56.274;43.980;2023-02-18T06:46:39;99659.16;;;-5.88;72.00
69982;BME280;57319;56.274;43.980;2023-02-18T06:49:05;99653.19;;;-5.90;72.08
69982;BME280;57319;56.274;43.980;2023-02-18T06:51:30;99651.69;;;-5.86;72.28
69982;BME280;57319;56.274;43.980;2023-02-18T06:53:56;99643.16;;;-5.90;72.21
69982;BME280;57319;56.274;43.980;2023-02-18T06:56:21;99647.63;;;-5.84;71.98
69982;BME280;57319;56.274;43.980;2023-02-18T06:58:47;99646.06;;;-5.82;72.50
69982;BME280;57319;56.274;43.980;2023-02-18T07:01:13;99645.50;;;-5.76;72.09
69982;BME280;57319;56.274;43.980;2023-02-18T07:03:38;99650.75;;;-5.72;71.85
69982;BME280;57319;56.274;43.980;2023-02-18T07:06:04;99637.13;;;-5.60;72.03
69982;BME280;57319;56.274;43.980;2023-02-18T07:08:30;99634.00;;;-5.56;71.71
69982;BME280;57319;56.274;43.980;2023-02-18T07:10:57;99639.50;;;-5.46;71.53
69982;BME280;57319;56.274;43.980;2023-02-18T07:13:23;99631.28;;;-5.43;70.54
69982;BME280;57319;56.274;43.980;2023-02-18T07:15:48;99623.31;;;-5.52;70.77
69982;BME280;57319;56.274;43.980;2023-02-18T07:18:14;99622.06;;;-5.44;71.51
69982;BME280;57319;56.274;43.980;2023-02-18T07:20:39;99623.19;;;-5.37;71.01
69982;BME280;57319;56.274;43.980;2023-02-18T07:23:05;99621.00;;;-5.31;70.66
69982;BME280;57319;56.274;43.980;2023-02-18T07:25:30;99619.53;;;-5.44;69.80
69982;BME280;57319;56.274;43.980;2023-02-18T07:27:56;99625.81;;;-5.52;70.81
69982;BME280;57319;56.274;43.980;2023-02-18T07:30:22;99608.03;;;-5.57;70.91
69982;BME280;57319;56.274;43.980;2023-02-18T07:32:47;99604.94;;;-5.51;71.04
69982;BME280;57319;56.274;43.980;2023-02-18T07:35:14;99604.03;;;-5.53;71.19
69982;BME280;57319;56.274;43.980;2023-02-18T07:37:44;99613.91;;;-5.56;70.65
69982;BME280;57319;56.274;43.980;2023-02-18T07:40:12;99603.97;;;-5.55;71.05
69982;BME280;57319;56.274;43.980;2023-02-18T07:42:38;99605.13;;;-5.48;71.01
69982;BME280;57319;56.274;43.980;2023-02-18T07:45:03;99602.84;;;-5.43;70.72
69982;BME280;57319;56.274;43.980;2023-02-18T07:47:31;99598.72;;;-5.41;70.44
69982;BME280;57319;56.274;43.980;2023-02-18T07:49:57;99589.50;;;-5.42;70.61
69982;BME280;57319;56.274;43.980;2023-02-18T07:52:22;99604.16;;;-5.50;70.37
69982;BME280;57319;56.274;43.980;2023-02-18T07:54:48;99595.41;;;-5.58;70.46
69982;BME280;57319;56.274;43.980;2023-02-18T07:57:13;99589.84;;;-5.53;70.95
69982;BME280;57319;56.274;43.980;2023-02-18T07:59:39;99587.31;;;-5.53;70.19
69982;BME280;57319;56.274;43.980;2023-02-18T08:02:05;99579.88;;;-5.51;70.45
69982;BME280;57319;56.274;43.980;2023-02-18T08:04:32;99582.22;;;-5.54;70.80
69982;BME280;57319;56.274;43.980;2023-02-18T08:06:58;99576.06;;;-5.61;70.76
69982;BME280;57319;56.274;43.980;2023-02-18T08:09:23;99575.50;;;-5.55;70.64
69982;BME280;57319;56.274;43.980;2023-02-18T08:11:49;99584.09;;;-5.50;70.54
69982;BME280;57319;56.274;43.980;2023-02-18T08:14:15;99573.38;;;-5.48;70.42
69982;BME280;57319;56.274;43.980;2023-02-18T08:16:40;99577.97;;;-5.39;70.49
69982;BME280;57319;56.274;43.980;2023-02-18T08:19:06;99573.00;;;-5.37;70.35
69982;BME280;57319;56.274;43.980;2023-02-18T08:21:32;99564.19;;;-5.47;70.10
69982;BME280;57319;56.274;43.980;2023-02-18T08:23:58;99559.16;;;-5.47;70.62
69982;BME280;57319;56.274;43.980;2023-02-18T08:26:25;99563.34;;;-5.48;70.69
69982;BME280;57319;56.274;43.980;2023-02-18T08:28:50;99559.09;;;-5.49;70.57
69982;BME280;57319;56.274;43.980;2023-02-18T08:31:18;99539.09;;;-5.47;70.24
69982;BME280;57319;56.274;43.980;2023-02-18T08:33:45;99546.78;;;-5.44;70.22
69982;BME280;57319;56.274;43.980;2023-02-18T08:36:10;99544.13;;;-5.47;70.73
69982;BME280;57319;56.274;43.980;2023-02-18T08:38:36;99540.03;;;-5.45;70.93
69982;BME280;57319;56.274;43.980;2023-02-18T08:41:03;99538.91;;;-5.34;70.64
69982;BME280;57319;56.274;43.980;2023-02-18T08:43:30;99535.75;;;-5.30;70.47
69982;BME280;57319;56.274;43.980;2023-02-18T08:45:56;99536.13;;;-5.22;70.20
69982;BME280;57319;56.274;43.980;2023-02-18T08:48:22;99537.91;;;-5.19;70.49
69982;BME280;57319;56.274;43.980;2023-02-18T08:50:48;99529.56;;;-5.18;70.05
69982;BME280;57319;56.274;43.980;2023-02-18T08:53:14;99530.66;;;-5.13;70.24
69982;BME280;57319;56.274;43.980;2023-02-18T08:55:40;99536.31;;;-5.17;69.63
69982;BME280;57319;56.274;43.980;2023-02-18T08:58:06;99529.56;;;-5.18;69.54
69982;BME280;57319;56.274;43.980;2023-02-18T09:00:32;99525.78;;;-5.10;69.10
69982;BME280;57319;56.274;43.980;2023-02-18T09:02:58;99521.19;;;-5.19;69.21
69982;BME280;57319;56.274;43.980;2023-02-18T09:05:24;99528.16;;;-5.13;69.57
69982;BME280;57319;56.274;43.980;2023-02-18T09:07:50;99518.63;;;-5.20;69.74
69982;BME280;57319;56.274;43.980;2023-02-18T09:10:15;99524.78;;;-5.32;69.92
69982;BME280;57319;56.274;43.980;2023-02-18T09:12:41;99526.50;;;-5.31;69.81
69982;BME280;57319;56.274;43.980;2023-02-18T09:15:07;99525.06;;;-5.25;69.32
69982;BME280;57319;56.274;43.980;2023-02-18T09:17:33;99524.22;;;-5.26;69.14
69982;BME280;57319;56.274;43.980;2023-02-18T09:19:58;99526.09;;;-5.22;69.27
69982;BME280;57319;56.274;43.980;2023-02-18T09:22:24;99522.94;;;-5.18;69.77
69982;BME280;57319;56.274;43.980;2023-02-18T09:24:50;99523.06;;;-5.15;69.23
69982;BME280;57319;56.274;43.980;2023-02-18T09:27:15;99522.41;;;-5.11;69.72
69982;BME280;57319;56.274;43.980;2023-02-18T09:29:41;99513.88;;;-5.14;69.25
69982;BME280;57319;56.274;43.980;2023-02-18T09:32:08;99506.84;;;-5.21;68.99
69982;BME280;57319;56.274;43.980;2023-02-18T09:34:34;99508.28;;;-5.26;69.56
69982;BME280;57319;56.274;43.980;2023-02-18T09:37:00;99497.53;;;-5.24;69.38
69982;BME280;57319;56.274;43.980;2023-02-18T09:39:26;99484.66;;;-5.32;69.80
69982;BME280;57319;56.274;43.980;2023-02-18T09:41:57;99494.44;;;-5.18;69.71
69982;BME280;57319;56.274;43.980;2023-02-18T09:44:29;99484.56;;;-5.15;69.39
69982;BME280;57319;56.274;43.980;2023-02-18T09:47:01;99486.13;;;-5.17;69.67
69982;BME280;57319;56.274;43.980;2023-02-18T09:49:30;99488.91;;;-5.29;69.17
69982;BME280;57319;56.274;43.980;2023-02-18T09:52:21;99487.94;;;-5.33;69.42
69982;BME280;57319;56.274;43.980;2023-02-18T09:54:51;99489.44;;;-5.36;69.94
69982;BME280;57319;56.274;43.980;2023-02-18T09:57:43;99478.75;;;-5.32;69.90
69982;BME280;57319;56.274;43.980;2023-02-18T10:00:35;99475.31;;;-5.34;69.58
69982;BME280;57319;56.274;43.980;2023-02-18T10:03:07;99466.13;;;-5.34;69.83
69982;BME280;57319;56.274;43.980;2023-02-18T10:05:36;99462.63;;;-5.37;69.76
69982;BME280;57319;56.274;43.980;2023-02-18T10:08:12;99461.78;;;-5.38;70.05
69982;BME280;57319;56.274;43.980;2023-02-18T10:10:45;99461.28;;;-5.49;69.95
69982;BME280;57319;56.274;43.980;2023-02-18T10:13:14;99448.47;;;-5.55;70.65
69982;BME280;57319;56.274;43.980;2023-02-18T10:15:41;99451.31;;;-5.47;70.35
69982;BME280;57319;56.274;43.980;2023-02-18T10:18:27;99441.28;;;-5.47;70.02
69982;BME280;57319;56.274;43.980;2023-02-18T10:23:30;99440.84;;;-5.38;70.33
69982;BME280;57319;56.274;43.980;2023-02-18T10:25:58;99440.19;;;-5.34;69.72
69982;BME280;57319;56.274;43.980;2023-02-18T10:28:26;99436.41;;;-5.26;69.26
69982;BME280;57319;56.274;43.980;2023-02-18T10:30:57;99441.91;;;-5.33;70.08
69982;BME280;57319;56.274;43.980;2023-02-18T10:33:36;99431.81;;;-5.35;69.63
69982;BME280;57319;56.274;43.980;2023-02-18T10:36:24;99438.28;;;-5.40;69.66
69982;BME280;57319;56.274;43.980;2023-02-18T10:44:43;99426.16;;;-5.49;69.14
69982;BME280;57319;56.274;43.980;2023-02-18T10:50:08;99417.53;;;-5.54;68.82
69982;BME280;57319;56.274;43.980;2023-02-18T10:52:42;99420.28;;;-5.49;69.00
69982;BME280;57319;56.274;43.980;2023-02-18T10:55:13;99415.28;;;-5.49;68.59
69982;BME280;57319;56.274;43.980;2023-02-18T11:00:25;99406.72;;;-5.53;69.14
69982;BME280;57319;56.274;43.980;2023-02-18T11:03:21;99404.81;;;-5.58;69.20
69982;BME280;57319;56.274;43.980;2023-02-18T11:05:50;99390.34;;;-5.64;69.01
69982;BME280;57319;56.274;43.980;2023-02-18T11:08:20;99408.09;;;-5.59;68.74
69982;BME280;57319;56.274;43.980;2023-02-18T11:10:48;99392.28;;;-5.58;69.22
69982;BME280;57319;56.274;43.980;2023-02-18T11:13:17;99398.88;;;-5.60;68.91
69982;BME280;57319;56.274;43.980;2023-02-18T11:16:04;99395.16;;;-5.69;68.98
69982;BME280;57319;56.274;43.980;2023-02-18T11:18:44;99389.19;;;-5.71;69.67
69982;BME280;57319;56.274;43.980;2023-02-18T11:21:36;99385.53;;;-5.77;69.55
69982;BME280;57319;56.274;43.980;2023-02-18T11:24:11;99381.75;;;-5.69;69.63
69982;BME280;57319;56.274;43.980;2023-02-18T11:26:39;99381.03;;;-5.67;69.62
69982;BME280;57319;56.274;43.980;2023-02-18T11:29:19;99375.44;;;-5.61;70.10
69982;BME280;57319;56.274;43.980;2023-02-18T11:31:47;99367.97;;;-5.59;69.34
69982;BME280;57319;56.274;43.980;2023-02-18T11:34:20;99382.38;;;-5.55;69.60
69982;BME280;57319;56.274;43.980;2023-02-18T11:36:47;99382.16;;;-5.60;69.23
69982;BME280;57319;56.274;43.980;2023-02-18T11:39:20;99377.59;;;-5.69;69.49
69982;BME280;57319;56.274;43.980;2023-02-18T11:42:01;99366.81;;;-5.66;69.53
69982;BME280;57319;56.274;43.980;2023-02-18T11:47:21;99372.41;;;-5.72;69.54
69982;BME280;57319;56.274;43.980;2023-02-18T11:50:21;99371.22;;;-5.80;70.00
69982;BME280;57319;56.274;43.980;2023-02-18T11:52:49;99370.88;;;-5.70;70.16
69982;BME280;57319;56.274;43.980;2023-02-18T11:55:23;99360.06;;;-5.69;69.92
69982;BME280;57319;56.274;43.980;2023-02-18T11:57:55;99364.13;;;-5.71;69.21
69982;BME280;57319;56.274;43.980;2023-02-18T12:03:12;99356.53;;;-5.90;69.90
69982;BME280;57319;56.274;43.980;2023-02-18T12:05:39;99347.94;;;-5.96;70.24
69982;BME280;57319;56.274;43.980;2023-02-18T12:08:27;99346.81;;;-6.02;70.77
69982;BME280;57319;56.274;43.980;2023-02-18T12:11:08;99342.59;;;-6.03;69.65
69982;BME280;57319;56.274;43.980;2023-02-18T12:13:38;99338.97;;;-6.10;70.45
69982;BME280;57319;56.274;43.980;2023-02-18T12:19:01;99333.97;;;-6.10;71.13
69982;BME280;57319;56.274;43.980;2023-02-18T12:22:01;99337.31;;;-6.09;70.71
69982;BME280;57319;56.274;43.980;2023-02-18T12:24:35;99337.25;;;-6.11;70.87
69982;BME280;57319;56.274;43.980;2023-02-18T12:32:36;99332.38;;;-6.08;70.88
69982;BME280;57319;56.274;43.980;2023-02-18T12:38:46;99325.28;;;-5.99;70.32
69982;BME280;57319;56.274;43.980;2023-02-18T12:52:05;99319.56;;;-6.14;69.00
69982;BME280;57319;56.274;43.980;2023-02-18T13:05:46;99304.16;;;-6.40;69.97
69982;BME280;57319;56.274;43.980;2023-02-18T13:11:00;99287.78;;;-6.33;70.27
69982;BME280;57319;56.274;43.980;2023-02-18T13:13:42;99280.25;;;-6.33;69.46
69982;BME280;57319;56.274;43.980;2023-02-18T13:16:17;99281.25;;;-6.29;69.73
69982;BME280;57319;56.274;43.980;2023-02-18T13:18:54;99276.94;;;-6.32;69.96
69982;BME280;57319;56.274;43.980;2023-02-18T13:21:24;99275.25;;;-6.33;69.90
69982;BME280;57319;56.274;43.980;2023-02-18T13:24:06;99267.56;;;-6.36;69.19
69982;BME280;57319;56.274;43.980;2023-02-18T13:26:34;99280.47;;;-6.46;69.31
69982;BME280;57319;56.274;43.980;2023-02-18T13:29:41;99274.03;;;-6.41;69.87
69982;BME280;57319;56.274;43.980;2023-02-18T13:40:36;99272.81;;;-6.50;69.97
69982;BME280;57319;56.274;43.980;2023-02-18T13:46:10;99261.00;;;-6.52;70.20
69982;BME280;57319;56.274;43.980;2023-02-18T13:48:51;99271.28;;;-6.46;70.25
69982;BME280;57319;56.274;43.980;2023-02-18T13:56:34;99264.50;;;-6.49;69.17
69982;BME280;57319;56.274;43.980;2023-02-18T13:59:16;99261.13;;;-6.49;70.06
69982;BME280;57319;56.274;43.980;2023-02-18T14:01:48;99257.72;;;-6.51;70.11
69982;BME280;57319;56.274;43.980;2023-02-18T14:04:46;99262.72;;;-6.51;70.45
69982;BME280;57319;56.274;43.980;2023-02-18T14:09:47;99252.41;;;-6.57;69.68
69982;BME280;57319;56.274;43.980;2023-02-18T14:12:23;99261.63;;;-6.56;70.21
69982;BME280;57319;56.274;43.980;2023-02-18T14:14:50;99262.56;;;-6.54;70.01
69982;BME280;57319;56.274;43.980;2023-02-18T14:22:43;99251.31;;;-6.44;69.96
69982;BME280;57319;56.274;43.980;2023-02-18T14:27:37;99242.69;;;-6.51;69.75
69982;BME280;57319;56.274;43.980;2023-02-18T14:30:06;99251.81;;;-6.52;69.42
69982;BME280;57319;56.274;43.980;2023-02-18T14:32:40;99250.03;;;-6.54;68.79
69982;BME280;57319;56.274;43.980;2023-02-18T14:35:29;99244.44;;;-6.67;69.31
69982;BME280;57319;56.274;43.980;2023-02-18T14:38:00;99246.16;;;-6.66;69.33
69982;BME280;57319;56.274;43.980;2023-02-18T14:40:49;99234.22;;;-6.71;69.11
69982;BME280;57319;56.274;43.980;2023-02-18T14:51:23;99229.16;;;-6.73;67.99
69982;BME280;57319;56.274;43.980;2023-02-18T14:53:50;99232.50;;;-6.72;68.52
69982;BME280;57319;56.274;43.980;2023-02-18T14:56:18;99229.16;;;-6.73;69.01
69982;BME280;57319;56.274;43.980;2023-02-18T14:58:52;99228.00;;;-6.79;68.77
69982;BME280;57319;56.274;43.980;2023-02-18T15:01:32;99225.56;;;-6.78;69.12
69982;BME280;57319;56.274;43.980;2023-02-18T15:04:00;99224.06;;;-6.74;69.28
69982;BME280;57319;56.274;43.980;2023-02-18T15:06:33;99226.56;;;-6.74;68.78
69982;BME280;57319;56.274;43.980;2023-02-18T15:09:02;99224.16;;;-6.73;68.64
69982;BME280;57319;56.274;43.980;2023-02-18T15:11:39;99224.78;;;-6.77;68.88